Time;durP1;ratioP1;P1;durP2;ratioP2;P2;SDS_P1;SDS_P2;PMS_P1;PMS_P2;Temp;Humidity;BMP_temperature;BMP_pressure;BME280_temperature;BME280_humidity;BME280_pressure;Samples;Min_cycle;Max_cycle;Signal;HPM_P1;HPM_P2
2022/06/21 00:00:59;;;;;;;3.87;2.80;;;;;;;16.28;72.39;96562.39;1607398;88;28209;-78
2022/06/21 00:03:27;;;;;;;5.17;3.08;;;;;;;16.23;72.28;96565.91;1622932;88;25879;-79
2022/06/21 00:05:54;;;;;;;3.65;2.50;;;;;;;16.12;72.61;96566.42;1674320;83;25766;-79
2022/06/21 00:08:25;;;;;;;5.20;3.10;;;;;;;16.01;72.42;96560.66;1695703;83;25809;-78
2022/06/21 00:10:53;;;;;;;4.15;2.37;;;;;;;15.89;72.26;96563.33;1697759;83;25908;-79
2022/06/21 00:13:28;;;;;;;2.65;1.90;;;;;;;15.80;72.26;96558.95;1705523;83;27614;-78
2022/06/21 00:15:59;;;;;;;3.75;1.90;;;;;;;15.66;72.29;96561.86;1655544;85;25923;-78
2022/06/21 00:18:28;;;;;;;2.45;1.57;;;;;;;15.65;72.24;96569.73;1635886;84;26118;-80
2022/06/21 00:20:55;;;;;;;1.90;1.50;;;;;;;15.67;72.08;96579.82;1684545;83;25754;-79
2022/06/21 00:23:26;;;;;;;1.98;1.40;;;;;;;15.64;71.74;96589.86;1685448;83;25921;-78
2022/06/21 00:25:53;;;;;;;3.52;1.70;;;;;;;15.67;71.71;96604.30;1656458;85;27407;-78
2022/06/21 00:28:20;;;;;;;1.80;1.65;;;;;;;15.75;71.79;96603.80;1635157;85;26252;-77
2022/06/21 00:30:49;;;;;;;2.45;1.80;;;;;;;15.79;71.47;96606.28;1655652;84;25845;-80
2022/06/21 00:33:19;;;;;;;2.25;1.70;;;;;;;15.83;71.55;96610.91;1647014;86;26392;-76
2022/06/21 00:35:50;;;;;;;3.08;1.95;;;;;;;15.83;71.71;96606.02;1687616;84;26086;-78
2022/06/21 00:38:30;;;;;;;6.33;2.08;;;;;;;15.76;71.87;96604.91;1676937;83;27485;-80
2022/06/21 00:41:00;;;;;;;2.58;1.65;;;;;;;15.80;72.12;96606.02;1623838;87;25908;-77
2022/06/21 00:43:33;;;;;;;2.30;1.85;;;;;;;15.84;71.90;96604.39;1623790;87;25896;-80
2022/06/21 00:46:01;;;;;;;1.80;1.70;;;;;;;15.90;71.81;96599.81;1623769;87;26001;-78
2022/06/21 00:48:38;;;;;;;4.20;2.37;;;;;;;15.90;71.95;96598.45;1618527;87;25720;-78
2022/06/21 00:51:22;;;;;;;3.02;2.00;;;;;;;15.93;72.27;96596.56;1624523;87;27458;-80
2022/06/21 00:53:59;;;;;;;2.20;2.00;;;;;;;15.94;72.41;96586.50;1616453;88;26112;-77
2022/06/21 00:56:32;;;;;;;2.77;2.05;;;;;;;15.83;72.16;96580.16;1615356;88;25799;-79
2022/06/21 00:59:22;;;;;;;3.37;2.35;;;;;;;15.72;72.22;96592.08;1618313;87;25858;-80
2022/06/21 01:01:50;;;;;;;3.20;2.50;;;;;;;15.64;72.30;96587.14;1627465;87;25717;-79
2022/06/21 01:04:31;;;;;;;3.52;2.47;;;;;;;15.49;72.13;96596.80;1628130;87;27447;-78
2022/06/21 01:07:01;;;;;;;3.85;2.83;;;;;;;15.49;72.12;96594.09;1623681;87;25922;-78
2022/06/21 01:09:59;;;;;;;2.45;2.25;;;;;;;15.41;72.09;96596.48;1625781;87;25878;-79
2022/06/21 01:12:33;;;;;;;3.08;2.40;;;;;;;15.38;72.19;96595.10;1661739;82;25735;-79
2022/06/21 01:15:05;;;;;;;2.58;2.30;;;;;;;15.28;72.19;96595.03;1730029;82;26020;-81
2022/06/21 01:17:35;;;;;;;3.47;2.72;;;;;;;15.28;72.21;96596.39;1721841;82;27471;-78
2022/06/21 01:20:09;;;;;;;2.65;2.45;;;;;;;15.31;72.13;96598.59;1732240;82;25856;-81
2022/06/21 01:22:53;;;;;;;2.90;2.37;;;;;;;15.29;72.11;96593.95;1666740;85;25994;-78
2022/06/21 01:25:40;;;;;;;2.40;2.20;;;;;;;15.15;72.03;96595.47;1665452;85;26581;-83
2022/06/21 01:28:09;;;;;;;2.65;2.10;;;;;;;15.11;72.18;96586.19;1665417;85;26455;-81
2022/06/21 01:30:38;;;;;;;1.77;1.67;;;;;;;14.98;72.43;96597.48;1656864;85;27350;-81
2022/06/21 01:33:06;;;;;;;3.62;2.35;;;;;;;14.92;72.55;96595.82;1661794;85;25813;-80
2022/06/21 01:35:44;;;;;;;2.08;1.70;;;;;;;14.95;72.76;96599.39;1659110;85;25951;-79
2022/06/21 01:38:18;;;;;;;1.77;1.67;;;;;;;14.83;72.73;96590.05;1684284;84;26381;-77
2022/06/21 01:40:49;;;;;;;4.55;2.10;;;;;;;14.68;72.75;96590.72;1650026;86;25880;-79
2022/06/21 01:43:20;;;;;;;3.95;2.05;;;;;;;14.68;72.87;96597.51;1650883;85;28317;-80
2022/06/21 01:45:55;;;;;;;1.77;1.67;;;;;;;14.62;73.30;96594.45;1623961;87;25900;-82
2022/06/21 01:48:41;;;;;;;4.92;1.92;;;;;;;14.61;73.35;96595.52;1647421;86;25907;-81
2022/06/21 01:51:15;;;;;;;2.17;2.05;;;;;;;14.64;73.33;96605.88;1652142;86;25963;-80
2022/06/21 01:53:43;;;;;;;2.00;1.90;;;;;;;14.56;73.47;96606.34;1653016;86;25814;-80
2022/06/21 01:56:21;;;;;;;1.80;1.70;;;;;;;14.42;73.48;96609.17;1654083;86;27532;-83
2022/06/21 01:59:04;;;;;;;4.37;1.90;;;;;;;14.30;73.59;96615.25;1649396;86;25878;-84
2022/06/21 02:01:46;;;;;;;1.70;1.60;;;;;;;14.20;73.98;96621.92;1633840;87;26032;-81
2022/06/21 02:04:20;;;;;;;1.80;1.70;;;;;;;14.13;73.85;96612.59;1634478;87;25788;-81
2022/06/21 02:06:49;;;;;;;1.60;1.50;;;;;;;14.07;73.96;96624.48;1632707;87;26484;-81
2022/06/21 02:09:25;;;;;;;1.98;1.75;;;;;;;13.99;73.98;96629.81;1634587;87;27800;-81
2022/06/21 02:12:00;;;;;;;2.30;1.70;;;;;;;13.97;74.06;96635.20;1633097;87;26396;-82
2022/06/21 02:14:30;;;;;;;1.67;1.55;;;;;;;13.89;74.15;96636.44;1633519;87;25765;-82
2022/06/21 02:17:08;;;;;;;1.60;1.50;;;;;;;13.84;74.31;96639.10;1634247;87;25923;-81
2022/06/21 02:19:43;;;;;;;2.40;2.00;;;;;;;13.80;74.32;96646.09;1625918;87;25827;-82
2022/06/21 02:22:20;;;;;;;2.45;1.92;;;;;;;13.81;74.28;96649.09;1625396;87;27529;-80
2022/06/21 02:24:47;;;;;;;2.40;2.20;;;;;;;13.81;74.38;96647.73;1614000;87;26630;-80
2022/06/21 02:27:18;;;;;;;2.10;1.98;;;;;;;13.87;74.49;96660.31;1611191;87;25754;-80
2022/06/21 02:29:51;;;;;;;2.70;2.15;;;;;;;13.89;74.41;96663.56;1613669;87;26541;-79
2022/06/21 02:32:37;;;;;;;2.42;2.20;;;;;;;13.95;74.24;96659.05;1626096;87;25863;-80
2022/06/21 02:35:15;;;;;;;4.35;2.35;;;;;;;13.93;74.07;96655.23;1644434;86;28042;-79
2022/06/21 02:37:44;;;;;;;2.98;2.65;;;;;;;13.99;73.96;96660.20;1647879;86;26136;-79
2022/06/21 02:40:21;;;;;;;3.95;2.60;;;;;;;13.98;73.86;96666.70;1654888;86;25840;-82
2022/06/21 02:42:51;;;;;;;3.55;2.42;;;;;;;14.05;73.99;96672.75;1651896;86;25786;-79
2022/06/21 02:46:02;;;;;;;5.85;2.75;;;;;;;14.04;74.24;96670.57;1670050;83;25774;-80
2022/06/21 02:48:34;;;;;;;3.10;2.90;;;;;;;14.05;74.14;96674.92;1706549;83;28210;-83
2022/06/21 02:51:09;;;;;;;4.30;3.90;;;;;;;14.03;74.22;96671.64;1709656;83;25868;-83
2022/06/21 02:53:52;;;;;;;6.20;3.30;;;;;;;13.96;74.05;96668.30;1708509;83;25838;-81
2022/06/21 02:56:26;;;;;;;4.95;3.95;;;;;;;14.00;73.68;96680.30;1709721;83;25897;-80
2022/06/21 02:58:57;;;;;;;3.92;3.25;;;;;;;14.01;73.61;96672.42;1759044;80;25820;-81
2022/06/21 03:01:29;;;;;;;5.20;3.75;;;;;;;14.03;73.48;96679.78;1761570;80;27395;-80
2022/06/21 03:03:57;;;;;;;4.35;3.95;;;;;;;14.04;73.45;96682.78;1702324;83;25824;-79
2022/06/21 03:06:26;;;;;;;4.17;3.77;;;;;;;14.04;73.47;96683.31;1696919;83;25818;-79
2022/06/21 03:08:58;;;;;;;4.40;4.00;;;;;;;13.99;73.43;96677.30;1681624;83;26119;-78
2022/06/21 03:11:29;;;;;;;4.62;4.22;;;;;;;13.96;73.50;96672.37;1712762;82;25537;-79
2022/06/21 03:14:00;;;;;;;5.78;4.03;;;;;;;13.90;73.37;96673.35;1694092;83;27514;-79
2022/06/21 03:16:26;;;;;;;4.60;4.20;;;;;;;13.91;73.36;96672.28;1692533;83;25819;-80
2022/06/21 03:18:58;;;;;;;4.30;3.90;;;;;;;13.94;73.45;96682.64;1690477;83;26228;-79
2022/06/21 03:21:34;;;;;;;4.17;3.77;;;;;;;13.94;73.51;96680.47;1697655;83;26401;-79
2022/06/21 03:24:06;;;;;;;4.45;4.05;;;;;;;13.92;73.55;96687.50;1699650;83;25783;-79
2022/06/21 03:26:38;;;;;;;4.80;3.67;;;;;;;13.98;73.39;96691.94;1575054;89;27682;-81
2022/06/21 03:29:04;;;;;;;3.85;3.55;;;;;;;14.01;73.13;96692.77;1578179;90;25818;-78
2022/06/21 03:31:38;;;;;;;4.12;3.72;;;;;;;14.00;73.09;96692.52;1580249;88;27052;-80
2022/06/21 03:34:09;;;;;;;4.53;3.45;;;;;;;14.02;73.24;96699.84;1575943;89;26356;-80
2022/06/21 03:36:36;;;;;;;10.32;4.12;;;;;;;14.02;73.01;96705.80;1531410;91;25966;-79
2022/06/21 03:41:42;;;;;;;4.35;3.95;;;;;;;14.08;73.00;96697.21;1533469;91;27441;-81
2022/06/21 03:41:53;;;;;;;5.22;3.75;;;;;;;14.11;72.77;96703.50;1508850;92;25933;-79
2022/06/21 03:44:34;;;;;;;4.00;3.70;;;;;;;14.16;72.64;96714.41;1532577;91;25881;-80
2022/06/21 03:47:12;;;;;;;4.42;3.27;;;;;;;14.21;72.48;96713.95;1532507;91;25722;-79
2022/06/21 03:50:01;;;;;;;4.65;3.42;;;;;;;14.26;72.26;96709.11;1531517;92;25887;-80
2022/06/21 03:52:43;;;;;;;6.05;3.47;;;;;;;14.26;72.19;96714.55;1513093;93;27476;-81
2022/06/21 03:55:23;;;;;;;3.67;3.25;;;;;;;14.15;71.81;96720.38;1531276;92;25933;-77
2022/06/21 03:58:07;;;;;;;3.95;3.10;;;;;;;14.06;71.63;96718.63;1530489;91;25857;-81
2022/06/21 04:00:54;;;;;;;5.70;3.12;;;;;;;14.03;71.43;96716.41;1546813;89;25839;-81
2022/06/21 04:03:38;;;;;;;5.97;3.45;;;;;;;13.99;71.21;96712.58;1556677;90;25822;-81
2022/06/21 04:06:16;;;;;;;3.35;2.85;;;;;;;14.01;71.03;96714.48;1543452;91;28336;-78
2022/06/21 04:08:48;;;;;;;4.65;3.30;;;;;;;14.02;71.28;96717.48;1539947;91;25954;-77
2022/06/21 04:11:28;;;;;;;3.92;3.20;;;;;;;13.99;71.11;96722.61;1517360;92;25934;-79
2022/06/21 04:14:21;;;;;;;5.25;3.50;;;;;;;13.95;71.14;96722.27;1477938;96;26330;-78
2022/06/21 04:17:11;;;;;;;3.42;3.12;;;;;;;13.87;71.16;96722.70;1478104;96;25864;-78
2022/06/21 04:19:55;;;;;;;4.03;3.15;;;;;;;13.91;71.05;96733.86;1518295;92;27442;-77
2022/06/21 04:22:45;;;;;;;8.10;3.77;;;;;;;13.89;70.82;96731.39;1524835;93;25994;-77
2022/06/21 04:25:43;;;;;;;5.58;3.50;;;;;;;13.86;70.87;96730.56;1521844;93;26502;-76
2022/06/21 04:28:15;;;;;;;4.45;3.12;;;;;;;13.91;70.79;96729.79;1513106;92;26580;-78
2022/06/21 04:30:55;;;;;;;4.20;3.40;;;;;;;13.91;70.66;96724.36;1564276;89;25810;-78
2022/06/21 04:33:27;;;;;;;8.70;3.27;;;;;;;13.94;70.62;96731.48;1571222;90;28223;-77
2022/06/21 04:36:30;;;;;;;3.05;2.75;;;;;;;13.99;70.46;96736.17;1574520;90;25906;-78
2022/06/21 04:39:02;;;;;;;;;;;;;;;13.99;70.34;96739.70;1580434;89;25778;-77
2022/06/21 04:41:43;;;;;;;2.92;2.65;;;;;;;13.99;70.00;96738.36;1578241;89;26035;-77
2022/06/21 04:44:17;;;;;;;4.92;2.85;;;;;;;13.98;70.26;96748.92;1578553;89;25734;-77
2022/06/21 04:47:08;;;;;;;3.33;2.95;;;;;;;13.95;69.78;96743.98;1556511;90;27663;-76
2022/06/21 04:49:45;;;;;;;4.72;2.90;;;;;;;13.91;69.53;96740.11;1532035;93;25817;-77
2022/06/21 04:52:29;;;;;;;5.25;2.90;;;;;;;13.94;69.25;96740.16;1484150;96;25978;-76
2022/06/21 04:54:57;;;;;;;5.08;3.12;;;;;;;13.94;69.01;96742.33;1483294;96;25951;-76
2022/06/21 04:57:28;;;;;;;5.22;3.35;;;;;;;14.01;68.83;96737.55;1481752;95;25884;-78
2022/06/21 05:00:03;;;;;;;5.40;3.02;;;;;;;14.06;68.55;96742.23;1480422;95;27437;-76
2022/06/21 05:02:40;;;;;;;5.87;3.05;;;;;;;14.12;68.55;96737.72;1465143;96;25814;-77
2022/06/21 05:05:23;;;;;;;3.95;2.77;;;;;;;14.14;68.34;96737.73;1429556;98;25870;-77
2022/06/21 05:07:55;;;;;;;;;;;;;;;14.14;67.93;96733.66;1431745;99;26609;-74
2022/06/21 05:10:29;;;;;;;6.42;3.65;;;;;;;14.17;67.55;96737.77;1443390;97;26523;-78
2022/06/21 05:12:59;;;;;;;6.65;4.53;;;;;;;14.19;67.54;96741.06;1466585;95;27687;-75
2022/06/21 05:15:34;;;;;;;8.95;3.90;;;;;;;14.20;67.41;96738.63;1487941;95;25730;-77
2022/06/21 05:18:32;;;;;;;7.22;3.87;;;;;;;14.23;67.26;96736.78;1468423;95;25934;-78
2022/06/21 05:21:04;;;;;;;7.45;4.50;;;;;;;14.26;67.11;96741.69;1488190;94;26104;-75
2022/06/21 05:23:31;;;;;;;6.05;4.75;;;;;;;14.29;66.65;96733.05;1458073;97;25864;-76
2022/06/21 05:26:02;;;;;;;7.42;4.87;;;;;;;14.32;66.60;96743.41;1459432;97;28521;-78
2022/06/21 05:28:54;;;;;;;6.67;4.60;;;;;;;14.28;66.39;96747.16;1439811;97;25887;-75
2022/06/21 05:31:29;;;;;;;9.55;5.05;;;;;;;14.22;66.17;96737.31;1449940;97;25882;-77
2022/06/21 05:34:12;;;;;;;9.98;5.37;;;;;;;14.16;66.06;96740.20;1438239;98;25916;-79
2022/06/21 05:36:58;;;;;;;7.75;5.55;;;;;;;14.11;65.92;96749.11;1458993;97;26023;-78
2022/06/21 05:39:33;;;;;;;7.00;5.25;;;;;;;14.12;65.97;96749.39;1435692;97;27595;-76
2022/06/21 05:42:03;;;;;;;9.58;5.72;;;;;;;14.14;65.97;96755.37;1451863;97;25877;-76
2022/06/21 05:44:41;;;;;;;10.03;5.30;;;;;;;14.15;65.70;96752.12;1461190;96;25976;-77
2022/06/21 05:47:27;;;;;;;6.85;5.55;;;;;;;14.14;65.61;96751.83;1492127;95;25875;-79
2022/06/21 05:49:57;;;;;;;6.85;6.00;;;;;;;14.16;65.56;96755.13;1507913;94;25957;-79
2022/06/21 05:52:31;;;;;;;10.23;5.90;;;;;;;14.15;65.47;96747.52;1530494;92;27472;-77
2022/06/21 05:55:30;;;;;;;10.05;5.58;;;;;;;14.15;65.48;96747.52;1533218;92;25917;-77
2022/06/21 05:58:07;;;;;;;7.50;4.97;;;;;;;14.22;65.44;96748.17;1530103;92;26272;-78
2022/06/21 06:01:03;;;;;;;8.65;5.33;;;;;;;14.25;65.30;96746.30;1551050;88;26043;-77
2022/06/21 06:03:44;;;;;;;10.78;6.12;;;;;;;14.27;65.10;96742.80;1694638;84;25716;-78
2022/06/21 06:06:16;;;;;;;8.58;5.75;;;;;;;14.32;65.08;96747.48;1702075;84;27522;-78
2022/06/21 06:08:53;;;;;;;8.73;4.93;;;;;;;14.36;64.94;96745.92;1691143;83;25928;-78
2022/06/21 06:11:57;;;;;;;7.62;4.90;;;;;;;14.40;64.92;96738.39;1689951;83;25697;-79
2022/06/21 06:13:59;;;;;;;6.55;4.67;;;;;;;14.48;64.70;96745.30;1674256;83;25947;-78
2022/06/21 06:16:34;;;;;;;8.15;5.10;;;;;;;14.47;64.34;96738.23;1683612;84;25948;-77
2022/06/21 06:19:21;;;;;;;7.42;4.62;;;;;;;14.48;64.27;96741.23;1695385;83;28254;-79
2022/06/21 06:22:08;;;;;;;9.03;5.20;;;;;;;14.49;64.11;96733.91;1634346;87;25761;-76
2022/06/21 06:24:46;;;;;;;10.93;4.33;;;;;;;14.52;63.96;96746.95;1610735;88;25967;-80
2022/06/21 06:27:45;;;;;;;6.10;3.80;;;;;;;14.51;63.72;96739.34;1577354;89;26504;-78
2022/06/21 06:30:17;;;;;;;7.12;4.33;;;;;;;14.45;63.35;96743.08;1560122;88;25964;-78
2022/06/21 06:33:04;;;;;;;9.30;3.95;;;;;;;14.45;63.36;96740.37;1568294;89;27434;-77
2022/06/21 06:35:31;;;;;;;7.33;3.92;;;;;;;14.47;63.28;96731.44;1575457;89;25514;-79
2022/06/21 06:37:58;;;;;;;8.28;3.70;;;;;;;14.53;63.26;96733.66;1573825;90;25844;-79
2022/06/21 06:40:29;;;;;;;6.45;3.77;;;;;;;14.62;63.18;96734.86;1562102;89;26047;-80
2022/06/21 06:43:13;;;;;;;6.78;4.05;;;;;;;14.73;63.15;96727.94;1527537;92;25841;-77
2022/06/21 06:45:43;;;;;;;4.87;3.42;;;;;;;14.85;62.60;96736.52;1528902;93;26948;-78
2022/06/21 06:48:17;;;;;;;7.00;4.05;;;;;;;14.93;62.14;96731.44;1529583;93;25973;-75
2022/06/21 06:50:59;;;;;;;5.78;2.90;;;;;;;15.04;62.41;96732.36;1501300;94;25815;-76
2022/06/21 06:53:37;;;;;;;8.33;3.62;;;;;;;15.15;61.99;96743.62;1479763;96;25820;-77
2022/06/21 06:56:11;;;;;;;8.15;3.30;;;;;;;15.17;61.81;96733.86;1406672;99;26072;-78
2022/06/21 06:58:57;;;;;;;7.25;3.45;;;;;;;15.17;61.82;96733.32;1387652;99;27645;-78
2022/06/21 07:01:40;;;;;;;6.78;3.22;;;;;;;15.20;61.56;96736.06;1374139;103;25883;-78
2022/06/21 07:04:11;;;;;;;4.05;2.85;;;;;;;15.25;61.52;96742.36;1375962;103;25824;-77
2022/06/21 07:06:48;;;;;;;6.15;3.30;;;;;;;15.30;61.25;96744.32;1397767;100;26359;-79
2022/06/21 07:09:31;;;;;;;5.97;2.67;;;;;;;15.30;60.79;96744.32;1407219;99;26035;-77
2022/06/21 07:12:22;;;;;;;;;;;;;;;15.30;61.00;96748.40;1404337;100;28347;-82
2022/06/21 07:14:51;;;;;;;10.00;2.77;;;;;;;15.34;60.46;96738.63;1407199;101;25856;-78
2022/06/21 07:17:53;;;;;;;7.95;2.33;;;;;;;15.41;60.23;96733.28;1407355;101;25543;-77
2022/06/21 07:20:39;;;;;;;2.93;2.30;;;;;;;15.41;59.99;96749.59;1405147;99;26026;-79
2022/06/21 07:23:17;;;;;;;4.42;2.62;;;;;;;15.44;59.81;96742.83;1438816;96;26892;-77
2022/06/21 07:25:58;;;;;;;3.30;2.35;;;;;;;15.41;59.54;96746.87;1430506;99;27462;-77
2022/06/21 07:28:36;;;;;;;4.15;2.75;;;;;;;15.40;59.31;96743.05;1384426;102;26699;-76
2022/06/21 07:31:17;;;;;;;5.62;2.70;;;;;;;15.44;59.46;96741.47;1364456;102;26011;-79
2022/06/21 07:33:51;;;;;;;4.60;2.45;;;;;;;15.46;59.75;96748.27;1279533;111;26621;-78
2022/06/21 07:36:22;;;;;;;5.47;2.50;;;;;;;15.52;59.27;96743.70;1278668;111;26109;-79
2022/06/21 07:38:54;;;;;;;6.87;2.70;;;;;;;15.50;59.32;96745.86;1280152;111;27734;-79
2022/06/21 07:41:28;;;;;;;5.53;2.08;;;;;;;15.57;59.32;96752.50;1294170;110;25920;-79
2022/06/21 07:44:03;;;;;;;3.58;2.52;;;;;;;15.63;58.95;96752.80;1294228;110;25916;-79
2022/06/21 07:46:35;;;;;;;5.60;2.10;;;;;;;15.59;58.69;96757.94;1319176;105;26562;-78
2022/06/21 07:49:39;;;;;;;4.78;2.37;;;;;;;15.61;58.49;96757.68;1302319;109;25923;-83
2022/06/21 07:52:13;;;;;;;3.62;2.35;;;;;;;15.77;58.64;96754.84;1324784;106;27558;-80
2022/06/21 07:54:45;;;;;;;5.00;1.90;;;;;;;15.83;58.38;96749.70;1320316;108;26093;-77
2022/06/21 07:57:35;;;;;;;3.55;2.00;;;;;;;15.90;58.17;96744.59;1322415;107;26712;-79
2022/06/21 08:00:20;;;;;;;3.75;1.98;;;;;;;16.01;58.01;96745.77;1358037;103;25900;-81
2022/06/21 08:08:48;;;;;;;3.13;1.93;;;;;;;16.31;56.43;96744.30;1389470;102;25905;-78
2022/06/21 08:11:40;;;;;;;5.53;2.50;;;;;;;16.26;56.59;96764.72;1448240;95;25859;-78
2022/06/21 08:14:09;;;;;;;3.47;2.13;;;;;;;16.37;56.13;96760.42;1475553;97;26511;-76
2022/06/21 08:16:49;;;;;;;3.80;2.30;;;;;;;16.36;56.34;96756.59;1474944;97;26031;-76
2022/06/21 08:19:40;;;;;;;5.22;2.12;;;;;;;16.37;56.30;96765.05;1462456;96;28184;-79
2022/06/21 08:22:15;;;;;;;6.05;2.20;;;;;;;16.78;56.44;96749.23;1490258;93;26007;-79
2022/06/21 08:24:56;;;;;;;5.50;1.95;;;;;;;17.40;55.95;96743.38;1522656;93;25802;-81
2022/06/21 08:27:43;;;;;;;4.30;1.37;;;;;;;17.98;55.15;96744.81;1523033;93;26552;-79
2022/06/21 08:30:20;;;;;;;3.33;1.25;;;;;;;18.58;54.35;96757.57;1520447;93;25783;-78
2022/06/21 08:33:07;;;;;;;2.27;1.50;;;;;;;19.04;53.53;96758.20;1453578;98;28362;-82
2022/06/21 08:35:39;;;;;;;3.45;1.90;;;;;;;19.29;52.32;96752.34;1453539;98;25812;-79
2022/06/21 08:38:10;;;;;;;2.95;1.60;;;;;;;18.95;51.71;96763.18;1439003;98;25958;-82
2022/06/21 08:40:57;;;;;;;4.10;1.60;;;;;;;18.72;50.96;96757.77;1434169;98;25905;-77
2022/06/21 08:43:59;;;;;;;1.67;1.27;;;;;;;18.46;50.93;96746.09;1439970;98;25753;-76
2022/06/21 08:47:16;;;;;;;2.33;1.22;;;;;;;18.97;51.19;96748.10;1463949;96;27424;-80
2022/06/21 08:50:06;;;;;;;1.05;0.68;;;;;;;19.57;50.02;96750.80;1452115;98;26114;-82
2022/06/21 08:53:09;;;;;;;2.12;0.90;;;;;;;20.06;48.74;96754.80;1466572;96;26008;-78
2022/06/21 08:55:46;;;;;;;1.57;1.15;;;;;;;19.97;47.63;96757.34;1473715;96;25870;-79
2022/06/21 08:58:36;;;;;;;1.72;0.90;;;;;;;19.71;46.99;96747.14;1474197;96;25419;-79
2022/06/21 09:01:14;;;;;;;5.40;1.42;;;;;;;19.19;46.77;96739.53;1485214;96;27594;-78
2022/06/21 09:04:09;;;;;;;4.08;0.80;;;;;;;19.19;46.77;96739.53;1485147;96;25776;-80
2022/06/21 09:07:01;;;;;;;1.32;0.90;;;;;;;19.02;46.04;96759.03;1495569;95;25940;-79
2022/06/21 09:10:09;;;;;;;4.65;1.00;;;;;;;18.66;45.97;96762.45;1483546;95;25960;-80
2022/06/21 09:13:07;;;;;;;1.95;1.15;;;;;;;18.85;46.21;96759.91;1507999;94;26016;-79
2022/06/21 09:15:57;;;;;;;2.72;1.00;;;;;;;19.17;46.66;96758.70;1502404;94;27632;-80
2022/06/21 09:18:38;;;;;;;1.98;0.95;;;;;;;19.65;46.40;96757.88;1503571;94;25677;-81
2022/06/21 09:21:22;;;;;;;2.05;0.85;;;;;;;19.50;45.63;96768.11;1504914;95;25497;-78
2022/06/21 09:23:57;;;;;;;2.25;1.12;;;;;;;19.18;45.69;96771.28;1492606;96;25656;-78
2022/06/21 09:26:51;;;;;;;2.47;1.15;;;;;;;18.95;45.85;96772.20;1498735;93;26044;-77
2022/06/21 09:29:41;;;;;;;2.65;0.98;;;;;;;18.69;45.68;96773.39;1490433;95;28220;-77
2022/06/21 09:32:22;;;;;;;1.20;1.05;;;;;;;18.34;45.98;96786.56;1493222;94;26107;-78
2022/06/21 09:35:17;;;;;;;1.75;1.05;;;;;;;18.10;45.91;96784.95;1444382;97;26498;-78
2022/06/21 09:37:49;;;;;;;3.22;1.10;;;;;;;18.01;46.20;96790.66;1491060;93;25949;-78
2022/06/21 09:40:27;;;;;;;2.12;1.00;;;;;;;18.17;46.33;96790.94;1461211;96;33681;-78
2022/06/21 09:43:17;;;;;;;2.35;1.10;;;;;;;18.68;46.86;96784.87;1458581;96;28306;-78
2022/06/21 09:46:08;;;;;;;1.07;0.98;;;;;;;19.27;46.30;96783.26;1457256;97;25984;-80
2022/06/21 09:48:52;;;;;;;2.40;1.12;;;;;;;19.13;45.59;96774.84;1459836;96;25992;-79
2022/06/21 09:51:27;;;;;;;4.25;1.45;;;;;;;18.91;45.33;96784.79;1453407;97;26028;-78
2022/06/21 09:54:37;;;;;;;1.52;0.90;;;;;;;18.79;45.54;96785.66;1452447;96;25997;-78
2022/06/21 09:57:43;;;;;;;2.08;1.32;;;;;;;18.80;45.12;96781.83;1461151;97;27572;-76
2022/06/21 10:00:45;;;;;;;2.98;1.05;;;;;;;18.63;45.11;96789.52;1452509;95;25999;-81
2022/06/21 10:03:35;;;;;;;1.42;1.12;;;;;;;18.43;45.29;96793.64;1471943;95;25937;-78
2022/06/21 10:06:21;;;;;;;2.83;1.27;;;;;;;18.32;45.45;96792.84;1470026;96;25825;-80
2022/06/21 10:09:23;;;;;;;3.72;1.40;;;;;;;18.21;45.76;96804.33;1470399;95;25833;-79
2022/06/21 10:12:13;;;;;;;3.67;1.50;;;;;;;18.07;45.51;96815.53;1481850;95;27521;-77
2022/06/21 10:15:28;;;;;;;2.55;1.17;;;;;;;17.83;45.30;96807.60;1489746;95;25939;-79
2022/06/21 10:18:32;;;;;;;3.80;1.35;;;;;;;17.57;46.35;96805.34;1458602;97;25894;-80
2022/06/21 10:21:12;;;;;;;2.70;1.25;;;;;;;17.61;46.37;96816.83;1449540;96;26474;-79
2022/06/21 10:24:25;;;;;;;3.30;0.93;;;;;;;17.62;46.36;96802.64;1459251;96;26590;-78
2022/06/21 10:27:32;;;;;;;3.90;1.05;;;;;;;17.89;46.31;96799.13;1465855;96;27506;-79
2022/06/21 10:30:45;;;;;;;2.10;1.30;;;;;;;18.23;46.26;96806.22;1463012;96;25898;-78
2022/06/21 10:33:49;;;;;;;2.72;1.00;;;;;;;18.14;45.59;96790.11;1517408;92;25827;-81
2022/06/21 10:36:44;;;;;;;3.83;1.20;;;;;;;17.90;45.55;96802.13;1564628;90;25750;-79
2022/06/21 10:39:19;;;;;;;2.77;1.42;;;;;;;17.64;45.70;96813.56;1562192;91;26720;-80
2022/06/21 10:45:23;;;;;;;3.65;1.50;;;;;;;17.31;46.12;96829.55;1558753;91;25869;-84
2022/06/21 10:48:41;;;;;;;2.10;1.27;;;;;;;17.29;46.58;96829.28;1566530;91;25884;-78
2022/06/21 10:51:43;;;;;;;2.58;1.55;;;;;;;17.43;46.65;96830.96;1500939;94;25761;-78
2022/06/21 10:54:41;;;;;;;2.90;1.23;;;;;;;17.62;46.83;96833.48;1510216;91;25945;-79
2022/06/21 10:57:54;;;;;;;2.52;1.10;;;;;;;17.85;46.63;96825.35;1546735;92;28863;-80
2022/06/21 11:03:40;;;;;;;3.80;1.40;;;;;;;18.35;46.42;96825.09;1617026;83;25839;-80
2022/06/21 11:06:41;;;;;;;5.95;1.12;;;;;;;18.79;46.28;96826.66;1693969;83;25796;-77
2022/06/21 11:09:21;;;;;;;3.83;1.90;;;;;;;19.02;45.16;96836.98;1707084;83;25792;-77
2022/06/21 11:15:49;;;;;;;3.50;1.17;;;;;;;18.95;44.71;96839.20;1627228;87;25411;-78
2022/06/21 11:18:41;;;;;;;1.35;1.10;;;;;;;18.94;44.92;96840.30;1589453;88;25784;-79
2022/06/21 11:21:31;;;;;;;1.87;0.90;;;;;;;19.05;44.90;96846.01;1601888;87;25987;-81
2022/06/21 11:24:26;;;;;;;1.75;1.00;;;;;;;19.01;44.55;96838.63;1599838;88;25864;-84
2022/06/21 11:27:33;;;;;;;1.72;1.00;;;;;;;18.88;44.55;96824.99;1585480;89;27450;-81
2022/06/21 11:30:11;;;;;;;1.47;1.00;;;;;;;19.23;44.89;96830.87;1586826;89;25797;-82
2022/06/21 11:33:15;;;;;;;3.00;0.90;;;;;;;19.66;44.62;96833.44;1585590;88;25861;-81
2022/06/21 11:36:11;;;;;;;2.33;1.10;;;;;;;20.02;44.52;96828.54;1590290;87;25904;-80
2022/06/21 11:39:11;;;;;;;3.60;0.80;;;;;;;20.29;43.74;96829.95;1593129;88;25945;-81
2022/06/21 11:42:08;;;;;;;1.50;0.72;;;;;;;20.36;42.93;96823.08;1593423;89;27474;-83
2022/06/21 11:44:52;;;;;;;2.87;0.98;;;;;;;20.38;43.19;96816.76;1601659;89;25432;-78
2022/06/21 11:48:14;;;;;;;3.00;1.22;;;;;;;20.56;42.72;96826.72;1633568;87;25770;-80
2022/06/21 11:51:04;;;;;;;0.75;0.75;;;;;;;20.45;42.38;96819.15;1632404;86;25849;-77
2022/06/21 11:54:03;;;;;;;1.07;0.88;;;;;;;20.61;42.08;96819.28;1595735;88;25823;-80
2022/06/21 11:57:05;;;;;;;4.33;1.10;;;;;;;20.58;41.48;96819.03;1585747;89;28419;-80
2022/06/21 11:59:49;;;;;;;1.75;0.68;;;;;;;20.25;41.20;96818.77;1637998;86;25755;-80
2022/06/21 12:02:41;;;;;;;0.90;0.80;;;;;;;19.95;41.15;96810.22;1631193;86;25746;-80
2022/06/21 12:05:39;;;;;;;2.40;0.78;;;;;;;19.75;41.55;96815.30;1591350;89;25812;-80
2022/06/21 12:08:28;;;;;;;1.77;1.00;;;;;;;19.49;41.72;96823.39;1567665;90;25389;-79
2022/06/21 12:11:15;;;;;;;1.20;0.75;;;;;;;19.35;41.97;96828.63;1595518;89;28154;-79
2022/06/21 12:14:05;;;;;;;1.45;0.65;;;;;;;19.33;42.39;96823.16;1607473;88;25927;-83
2022/06/21 12:16:42;;;;;;;1.92;0.88;;;;;;;19.44;42.54;96815.20;1590719;88;26079;-79
2022/06/21 12:19:22;;;;;;;2.50;1.17;;;;;;;19.42;42.36;96825.60;1626555;87;26004;-81
2022/06/21 12:22:00;;;;;;;1.45;0.85;;;;;;;19.33;42.22;96816.32;1620195;86;25776;-81
2022/06/21 12:24:30;;;;;;;1.72;0.80;;;;;;;19.17;42.11;96822.98;1575476;89;27465;-79
2022/06/21 12:26:56;;;;;;;4.25;0.98;;;;;;;19.05;42.08;96826.04;1579096;90;25941;-78
2022/06/21 12:29:24;;;;;;;3.08;1.00;;;;;;;18.88;42.17;96830.46;1580772;90;25911;-79
2022/06/21 12:31:55;;;;;;;2.58;0.98;;;;;;;18.68;42.42;96826.42;1575398;90;25730;-78
2022/06/21 12:34:35;;;;;;;3.35;0.90;;;;;;;18.58;42.74;96831.37;1611816;88;25535;-78
2022/06/21 12:37:12;;;;;;;4.30;1.20;;;;;;;18.47;43.03;96832.45;1585399;88;28118;-82
2022/06/21 12:40:07;;;;;;;4.28;1.10;;;;;;;18.41;43.27;96832.72;1528560;92;25938;-82
2022/06/21 12:43:04;;;;;;;2.75;1.10;;;;;;;18.30;43.18;96824.53;1537826;92;25888;-81
2022/06/21 12:45:51;;;;;;;1.62;0.85;;;;;;;18.28;43.37;96812.23;1534076;92;25947;-79
2022/06/21 12:48:49;;;;;;;3.47;1.20;;;;;;;18.29;43.43;96816.61;1541183;92;25752;-83
2022/06/21 12:51:56;;;;;;;2.85;0.95;;;;;;;18.23;43.44;96807.58;1532253;92;27537;-80
2022/06/21 12:54:56;;;;;;;1.75;0.75;;;;;;;18.19;43.53;96811.98;1538603;92;25804;-81
2022/06/21 12:57:43;;;;;;;1.98;1.00;;;;;;;18.10;43.62;96812.26;1551502;91;25949;-81